createdAt,value
2018-06-10T00:00:02.288Z,99.99
2018-06-10T00:01:02.213Z,99.99
2018-06-10T00:02:02.143Z,99.99
2018-06-10T00:03:02.063Z,99.99
2018-06-10T00:04:02.000Z,99.99
2018-06-10T00:05:01.920Z,99.99
2018-06-10T00:06:01.852Z,99.99
2018-06-10T00:07:01.775Z,99.99
2018-06-10T00:08:01.706Z,99.99
2018-06-10T00:09:01.632Z,99.99
2018-06-10T00:10:01.561Z,99.99
2018-06-10T00:11:01.480Z,99.99
2018-06-10T00:12:01.453Z,99.99
2018-06-10T00:13:01.344Z,99.99
2018-06-10T00:14:01.277Z,99.99
2018-06-10T00:15:01.193Z,99.99
2018-06-10T00:16:02.127Z,99.99
2018-06-10T00:17:01.046Z,99.99
2018-06-10T00:18:00.981Z,99.99
2018-06-10T00:19:00.900Z,99.99
2018-06-10T00:20:00.839Z,99.99
2018-06-10T00:21:00.755Z,99.99
2018-06-10T00:22:00.691Z,99.99
2018-06-10T00:23:00.608Z,99.99
2018-06-10T00:24:00.543Z,99.99
2018-06-10T00:25:00.461Z,99.99
2018-06-10T00:26:00.402Z,99.99
2018-06-10T00:27:00.403Z,99.99
2018-06-10T00:28:00.250Z,99.99
2018-06-10T00:29:00.173Z,99.99
2018-06-10T00:30:00.124Z,99.99
2018-06-10T00:31:00.028Z,99.99
2018-06-10T00:31:59.961Z,99.99
2018-06-10T00:32:59.878Z,99.99
2018-06-10T00:33:59.819Z,99.99
2018-06-10T00:34:59.734Z,99.99
2018-06-10T00:35:59.668Z,99.99
2018-06-10T00:36:59.591Z,99.99
2018-06-10T00:37:59.522Z,99.99
2018-06-10T00:38:59.443Z,99.99
2018-06-10T00:39:59.378Z,99.99
2018-06-10T00:40:59.299Z,99.99
2018-06-10T00:41:59.239Z,99.99
2018-06-10T00:42:59.150Z,99.99
2018-06-10T00:43:59.089Z,99.99
2018-06-10T00:44:59.004Z,99.99
2018-06-10T00:45:58.942Z,99.99
2018-06-10T00:46:58.862Z,99.99
2018-06-10T00:47:58.801Z,99.99
2018-06-10T00:48:58.713Z,99.99
2018-06-10T00:49:58.648Z,99.99
2018-06-10T00:50:58.568Z,99.99
2018-06-10T00:51:58.501Z,99.99
2018-06-10T00:52:58.422Z,99.99
2018-06-10T00:53:58.356Z,99.99
2018-06-10T00:54:58.275Z,99.99
2018-06-10T00:55:58.211Z,99.99
2018-06-10T00:56:58.126Z,99.99
2018-06-10T00:57:58.064Z,99.99
2018-06-10T00:58:57.987Z,99.99
2018-06-10T00:59:57.929Z,99.99
2018-06-10T01:00:57.840Z,99.99
2018-06-10T01:01:57.776Z,99.99
2018-06-10T01:02:57.693Z,99.99
2018-06-10T01:03:57.623Z,99.99
2018-06-10T01:04:57.549Z,99.99
2018-06-10T01:05:57.475Z,99.99
2018-06-10T01:06:57.400Z,99.99
2018-06-10T01:07:57.335Z,99.99
2018-06-10T01:08:57.271Z,99.99
2018-06-10T01:09:57.193Z,99.99
2018-06-10T01:10:57.108Z,99.99
2018-06-10T01:11:57.045Z,99.99
2018-06-10T01:12:56.966Z,99.99
2018-06-10T01:13:56.900Z,99.99
2018-06-10T01:14:56.816Z,99.99
2018-06-10T01:15:56.755Z,99.99
2018-06-10T01:16:56.673Z,99.99
2018-06-10T01:17:56.639Z,99.99
2018-06-10T01:18:56.523Z,99.99
2018-06-10T01:19:56.459Z,99.99
2018-06-10T01:20:56.381Z,99.99
2018-06-10T01:21:56.316Z,99.99
2018-06-10T01:22:56.232Z,99.99
2018-06-10T01:23:56.164Z,99.99
2018-06-10T01:24:56.087Z,99.99
2018-06-10T01:25:56.024Z,99.99
2018-06-10T01:26:56.906Z,99.99
2018-06-10T01:27:55.873Z,99.99
2018-06-10T01:28:55.795Z,99.99
2018-06-10T01:29:55.727Z,99.99
2018-06-10T01:30:55.642Z,99.99
2018-06-10T01:31:55.581Z,99.99
2018-06-10T01:32:55.498Z,99.99
2018-06-10T01:33:55.443Z,99.99
2018-06-10T01:34:55.350Z,99.99
2018-06-10T01:35:55.287Z,99.99
2018-06-10T01:36:55.206Z,99.99
2018-06-10T01:37:55.141Z,99.99
2018-06-10T01:38:55.061Z,99.99
2018-06-10T01:39:54.987Z,99.99
2018-06-10T01:40:54.925Z,99.99
2018-06-10T01:41:54.845Z,99.99
2018-06-10T01:42:54.784Z,99.99
2018-06-10T01:43:54.695Z,99.99
2018-06-10T01:44:54.628Z,99.99
2018-06-10T01:45:54.548Z,99.99
2018-06-10T01:46:54.487Z,99.99
2018-06-10T01:47:54.406Z,99.99
2018-06-10T01:48:54.336Z,99.99
2018-06-10T01:49:54.256Z,99.99
2018-06-10T01:50:55.192Z,99.99
2018-06-10T01:51:54.111Z,99.99
2018-06-10T01:52:54.047Z,99.99
2018-06-10T01:53:53.963Z,99.99
2018-06-10T01:54:53.895Z,99.99
2018-06-10T01:55:53.821Z,99.99
2018-06-10T01:56:53.761Z,99.99
2018-06-10T01:57:53.670Z,99.99
2018-06-10T01:58:53.604Z,99.99
2018-06-10T01:59:53.526Z,99.99
2018-06-10T02:00:53.461Z,99.99
2018-06-10T02:01:53.381Z,99.99
2018-06-10T02:02:53.311Z,99.99
2018-06-10T02:03:53.232Z,99.99
2018-06-10T02:04:53.164Z,99.99
2018-06-10T02:05:53.084Z,99.99
2018-06-10T02:06:53.019Z,99.99
2018-06-10T02:07:52.935Z,99.99
2018-06-10T02:08:52.871Z,99.99
2018-06-10T02:09:52.788Z,99.99
2018-06-10T02:10:52.746Z,99.99
2018-06-10T02:11:52.643Z,99.99
2018-06-10T02:12:52.581Z,99.99
2018-06-10T02:13:52.498Z,99.99
2018-06-10T02:14:52.433Z,99.99
2018-06-10T02:15:52.353Z,99.99
2018-06-10T02:16:52.294Z,99.99
2018-06-10T02:17:52.203Z,99.99
2018-06-10T02:18:52.134Z,99.99
2018-06-10T02:19:52.064Z,99.99
2018-06-10T02:20:51.992Z,99.99
2018-06-10T02:21:51.907Z,99.99
2018-06-10T02:22:51.851Z,99.99
2018-06-10T02:23:51.764Z,99.99
2018-06-10T02:24:51.700Z,99.99
2018-06-10T02:25:51.623Z,99.99
2018-06-10T02:26:51.551Z,99.99
2018-06-10T02:27:51.473Z,99.99
2018-06-10T02:28:51.407Z,99.99
2018-06-10T02:29:51.326Z,99.99
2018-06-10T02:30:51.259Z,99.99
2018-06-10T02:31:51.178Z,99.99
2018-06-10T02:32:51.114Z,99.99
2018-06-10T02:33:51.036Z,99.99
2018-06-10T02:34:50.966Z,99.99
2018-06-10T02:35:50.887Z,99.99
2018-06-10T02:36:50.821Z,99.99
2018-06-10T02:37:50.741Z,99.99
2018-06-10T02:38:50.670Z,99.99
2018-06-10T02:39:50.592Z,99.99
2018-06-10T02:40:50.527Z,99.99
2018-06-10T02:41:50.447Z,99.99
2018-06-10T02:42:50.377Z,99.99
2018-06-10T02:43:50.297Z,99.99
2018-06-10T02:44:50.233Z,99.99
2018-06-10T02:45:50.152Z,99.99
2018-06-10T02:46:50.089Z,99.99
2018-06-10T02:47:50.006Z,99.99
2018-06-10T02:48:49.945Z,99.99
2018-06-10T02:49:49.860Z,99.99
2018-06-10T02:50:49.795Z,99.99
2018-06-10T02:51:49.710Z,99.99
2018-06-10T02:52:49.647Z,99.99
2018-06-10T02:53:49.570Z,99.99
2018-06-10T02:54:49.496Z,99.99
2018-06-10T02:55:49.416Z,99.99
2018-06-10T02:56:49.349Z,99.99
2018-06-10T02:57:49.273Z,99.99
2018-06-10T02:58:49.202Z,99.99
2018-06-10T02:59:49.121Z,99.99
2018-06-10T03:00:49.060Z,99.99
2018-06-10T03:01:48.978Z,99.99
2018-06-10T03:02:48.952Z,99.99
2018-06-10T03:03:48.828Z,99.99
2018-06-10T03:04:48.765Z,99.99
2018-06-10T03:05:48.681Z,99.99
2018-06-10T03:06:48.615Z,99.99
2018-06-10T03:07:48.617Z,99.99
2018-06-10T03:08:48.474Z,99.99
2018-06-10T03:09:48.390Z,99.99
2018-06-10T03:10:48.328Z,99.99
2018-06-10T03:11:48.242Z,99.99
2018-06-10T03:12:48.176Z,99.99
2018-06-10T03:13:48.097Z,99.99
2018-06-10T03:14:48.028Z,99.99
2018-06-10T03:15:47.949Z,99.99
2018-06-10T03:16:47.883Z,99.99
2018-06-10T03:17:47.843Z,99.99
2018-06-10T03:18:47.734Z,99.99
2018-06-10T03:19:47.653Z,99.99
2018-06-10T03:20:47.589Z,99.99
2018-06-10T03:21:47.505Z,99.99
2018-06-10T03:22:47.439Z,99.99
2018-06-10T03:23:47.362Z,99.99
2018-06-10T03:24:47.298Z,99.99
2018-06-10T03:25:47.213Z,99.99
2018-06-10T03:26:47.146Z,99.99
2018-06-10T03:27:47.074Z,99.99
2018-06-10T03:28:47.000Z,99.99
2018-06-10T03:29:46.924Z,99.99
2018-06-10T03:30:46.851Z,99.99
2018-06-10T03:31:46.773Z,99.99
2018-06-10T03:32:46.705Z,99.99
2018-06-10T03:33:46.662Z,99.99
2018-06-10T03:34:46.557Z,99.99
2018-06-10T03:35:46.481Z,99.99
2018-06-10T03:36:46.412Z,99.99
2018-06-10T03:37:46.333Z,99.99
2018-06-10T03:38:46.266Z,99.99
2018-06-10T03:39:46.187Z,99.99
2018-06-10T03:40:46.113Z,99.99
2018-06-10T03:41:46.041Z,99.99
2018-06-10T03:42:46.971Z,99.99
2018-06-10T03:43:45.893Z,99.99
2018-06-10T03:44:45.829Z,99.99
2018-06-10T03:45:45.744Z,99.99
2018-06-10T03:46:45.674Z,99.99
2018-06-10T03:47:45.595Z,99.99
2018-06-10T03:48:45.528Z,99.99
2018-06-10T03:49:45.451Z,99.99
2018-06-10T03:50:45.379Z,99.99
2018-06-10T03:51:45.303Z,99.99
2018-06-10T03:52:45.242Z,99.99
2018-06-10T03:53:45.157Z,99.99
2018-06-10T03:54:45.086Z,99.99
2018-06-10T03:55:45.010Z,99.99
2018-06-10T03:56:44.943Z,99.99
2018-06-10T03:57:44.859Z,99.99
2018-06-10T03:58:44.797Z,99.99
2018-06-10T03:59:44.709Z,99.99
2018-06-10T04:00:44.645Z,99.99
2018-06-10T04:01:44.566Z,99.99
2018-06-10T04:02:44.500Z,99.99
2018-06-10T04:03:44.416Z,99.99
2018-06-10T04:04:44.354Z,99.99
2018-06-10T04:05:44.270Z,99.99
2018-06-10T04:06:44.205Z,99.99
2018-06-10T04:07:44.123Z,99.99
2018-06-10T04:08:44.055Z,99.99
2018-06-10T04:09:43.976Z,99.99
2018-06-10T04:10:43.917Z,99.99
2018-06-10T04:11:43.831Z,99.99
2018-06-10T04:12:43.762Z,99.99
2018-06-10T04:13:43.681Z,99.99
2018-06-10T04:14:44.616Z,99.99
2018-06-10T04:15:43.532Z,99.99
2018-06-10T04:16:43.469Z,99.99
2018-06-10T04:17:43.386Z,99.99
2018-06-10T04:18:43.314Z,99.99
2018-06-10T04:19:43.242Z,99.99
2018-06-10T04:20:43.178Z,99.99
2018-06-10T04:21:43.094Z,99.99
2018-06-10T04:22:43.138Z,99.99
2018-06-10T04:23:42.946Z,99.99
2018-06-10T04:24:42.881Z,99.99
2018-06-10T04:25:42.799Z,99.99
2018-06-10T04:26:42.728Z,99.99
2018-06-10T04:27:42.651Z,99.99
2018-06-10T04:28:42.591Z,99.99
2018-06-10T04:29:42.505Z,99.99
2018-06-10T04:30:43.441Z,99.99
2018-06-10T04:31:42.360Z,99.99
2018-06-10T04:32:42.303Z,99.99
2018-06-10T04:33:42.209Z,99.99
2018-06-10T04:34:42.146Z,99.99
2018-06-10T04:35:42.075Z,99.99
2018-06-10T04:36:41.998Z,99.99
2018-06-10T04:37:41.926Z,99.99
2018-06-10T04:38:41.854Z,99.99
2018-06-10T04:39:41.771Z,99.99
2018-06-10T04:40:41.707Z,99.99
2018-06-10T04:41:41.621Z,99.99
2018-06-10T04:42:41.565Z,99.99
2018-06-10T04:43:41.479Z,99.99
2018-06-10T04:44:41.413Z,99.99
2018-06-10T04:45:41.331Z,99.99
2018-06-10T04:46:41.268Z,99.99
2018-06-10T04:47:41.183Z,99.99
2018-06-10T04:48:41.120Z,99.99
2018-06-10T04:49:41.039Z,99.99
2018-06-10T04:50:40.972Z,99.99
2018-06-10T04:51:40.892Z,99.99
2018-06-10T04:52:40.821Z,99.99
2018-06-10T04:53:40.744Z,99.99
2018-06-10T04:54:40.678Z,99.99
2018-06-10T04:55:40.600Z,99.99
2018-06-10T04:56:40.533Z,99.99
2018-06-10T04:57:40.452Z,99.99
2018-06-10T04:58:40.384Z,99.99
2018-06-10T04:59:40.308Z,99.99
2018-06-10T05:00:40.242Z,99.99
2018-06-10T05:01:40.161Z,99.99
2018-06-10T05:02:40.101Z,99.99
2018-06-10T05:03:40.009Z,99.99
2018-06-10T05:04:39.949Z,99.99
2018-06-10T05:05:39.866Z,99.99
2018-06-10T05:06:39.799Z,99.99
2018-06-10T05:07:39.718Z,99.99
2018-06-10T05:08:39.649Z,99.99
2018-06-10T05:09:39.574Z,99.99
2018-06-10T05:10:39.505Z,99.99
2018-06-10T05:11:39.426Z,99.99
2018-06-10T05:12:39.359Z,99.99
2018-06-10T05:13:39.285Z,99.99
2018-06-10T05:14:39.212Z,99.99
2018-06-10T05:15:39.133Z,99.99
2018-06-10T05:16:39.069Z,99.99
2018-06-10T05:17:38.987Z,99.99
2018-06-10T05:18:38.923Z,99.99
2018-06-10T05:19:38.909Z,99.99
2018-06-10T05:20:38.779Z,99.99
2018-06-10T05:21:38.700Z,99.99
2018-06-10T05:22:38.627Z,99.99
2018-06-10T05:23:38.554Z,99.99
2018-06-10T05:24:38.493Z,99.99
2018-06-10T05:25:38.402Z,99.99
2018-06-10T05:26:38.336Z,99.99
2018-06-10T05:27:38.259Z,99.99
2018-06-10T05:28:38.195Z,99.99
2018-06-10T05:29:38.124Z,99.99
2018-06-10T05:30:38.047Z,99.99
2018-06-10T05:31:37.968Z,99.99
2018-06-10T05:32:37.901Z,99.99
2018-06-10T05:33:37.821Z,99.99
2018-06-10T05:34:37.764Z,99.99
2018-06-10T05:35:37.674Z,99.99
2018-06-10T05:36:37.612Z,99.99
2018-06-10T05:37:37.533Z,99.99
2018-06-10T05:38:37.464Z,99.99
2018-06-10T05:39:37.384Z,99.99
2018-06-10T05:40:37.324Z,99.99
2018-06-10T05:41:37.241Z,99.99
2018-06-10T05:42:37.176Z,99.99
2018-06-10T05:43:37.094Z,99.99
2018-06-10T05:44:37.026Z,99.99
2018-06-10T05:45:36.952Z,99.99
2018-06-10T05:46:36.884Z,99.99
2018-06-10T05:47:36.804Z,99.99
2018-06-10T05:48:36.740Z,99.99
2018-06-10T05:49:36.662Z,99.99
2018-06-10T05:50:36.597Z,99.99
2018-06-10T05:51:36.512Z,99.99
2018-06-10T05:52:36.451Z,99.99
2018-06-10T05:53:36.369Z,99.99
2018-06-10T05:54:36.301Z,99.99
2018-06-10T05:55:36.226Z,99.99
2018-06-10T05:56:36.159Z,99.99
2018-06-10T05:57:36.081Z,99.99
2018-06-10T05:58:36.014Z,99.99
2018-06-10T05:59:35.935Z,99.99
2018-06-10T06:00:35.868Z,99.99
2018-06-10T06:01:35.790Z,99.99
2018-06-10T06:02:35.724Z,99.99
2018-06-10T06:03:35.645Z,99.99
2018-06-10T06:04:35.579Z,99.99
2018-06-10T06:05:35.506Z,99.99
2018-06-10T06:06:35.431Z,99.99
2018-06-10T06:07:35.355Z,99.99
2018-06-10T06:08:35.296Z,99.99
2018-06-10T06:09:35.213Z,99.99
2018-06-10T06:10:35.148Z,99.99
2018-06-10T06:11:35.069Z,99.99
2018-06-10T06:12:35.095Z,99.99
2018-06-10T06:13:34.923Z,99.99
2018-06-10T06:14:34.858Z,99.99
2018-06-10T06:15:34.778Z,99.99
2018-06-10T06:16:34.710Z,99.99
2018-06-10T06:17:34.714Z,99.99
2018-06-10T06:18:34.563Z,99.99
2018-06-10T06:19:34.521Z,99.99
2018-06-10T06:20:34.420Z,99.99
2018-06-10T06:21:34.435Z,99.99
2018-06-10T06:22:34.278Z,99.99
2018-06-10T06:23:34.242Z,99.99
2018-06-10T06:24:34.131Z,99.99
2018-06-10T06:25:34.152Z,99.99
2018-06-10T06:26:33.986Z,99.99
2018-06-10T06:27:33.960Z,99.99
2018-06-10T06:28:33.843Z,99.99
2018-06-10T06:29:33.872Z,99.99
2018-06-10T06:30:33.699Z,99.99
2018-06-10T06:31:33.680Z,99.99
2018-06-10T06:32:33.558Z,99.99
2018-06-10T06:33:33.590Z,99.99
2018-06-10T06:34:33.413Z,99.99
2018-06-10T06:35:33.407Z,99.99
2018-06-10T06:36:33.274Z,99.99
2018-06-10T06:37:33.316Z,99.99
2018-06-10T06:38:33.128Z,99.99
2018-06-10T06:39:33.120Z,99.99
2018-06-10T06:40:32.984Z,99.99
2018-06-10T06:41:33.030Z,99.99
2018-06-10T06:42:32.850Z,99.99
2018-06-10T06:43:32.838Z,99.99
2018-06-10T06:44:32.701Z,99.99
2018-06-10T06:45:32.648Z,99.99
2018-06-10T06:46:32.560Z,99.99
2018-06-10T06:47:32.559Z,99.99
2018-06-10T06:48:32.417Z,99.99
2018-06-10T06:49:32.368Z,99.99
2018-06-10T06:50:32.273Z,99.99
2018-06-10T06:51:32.278Z,99.99
2018-06-10T06:52:32.152Z,99.99
2018-06-10T06:53:32.084Z,99.99
2018-06-10T06:54:31.986Z,99.99
2018-06-10T06:55:31.995Z,99.99
2018-06-10T06:56:31.846Z,99.99
2018-06-10T06:57:31.811Z,99.99
2018-06-10T06:58:31.704Z,99.99
2018-06-10T06:59:31.717Z,99.99
2018-06-10T07:00:31.561Z,99.99
2018-06-10T07:01:31.529Z,99.99
2018-06-10T07:02:31.420Z,99.99
2018-06-10T07:03:31.438Z,99.99
2018-06-10T07:04:31.279Z,99.99
2018-06-10T07:05:31.246Z,99.99
2018-06-10T07:06:31.138Z,99.99
2018-06-10T07:07:31.157Z,99.99
2018-06-10T07:08:30.992Z,99.40
2018-06-10T07:09:30.967Z,99.50
2018-06-10T07:10:30.854Z,99.40
2018-06-10T07:11:30.879Z,99.40
2018-06-10T07:12:30.711Z,98.63
2018-06-10T07:13:30.686Z,98.82
2018-06-10T07:14:30.573Z,98.63
2018-06-10T07:15:30.595Z,99.02
2018-06-10T07:16:30.434Z,99.99
2018-06-10T07:17:30.408Z,99.99
2018-06-10T07:18:30.295Z,99.99
2018-06-10T07:19:30.317Z,99.99
2018-06-10T07:20:30.153Z,99.99
2018-06-10T07:21:30.125Z,99.99
2018-06-10T07:22:30.008Z,99.99
2018-06-10T07:23:30.040Z,99.99
2018-06-10T07:24:29.872Z,99.99
2018-06-10T07:25:29.855Z,99.99
2018-06-10T07:26:29.733Z,99.99
2018-06-10T07:27:29.758Z,99.99
2018-06-10T07:28:29.591Z,99.99
2018-06-10T07:29:29.531Z,99.99
2018-06-10T07:30:29.451Z,99.99
2018-06-10T07:31:29.477Z,99.93
2018-06-10T07:32:29.312Z,98.77
2018-06-10T07:33:29.297Z,98.68
2018-06-10T07:34:29.173Z,99.93
2018-06-10T07:35:29.193Z,97.96
2018-06-10T07:36:29.036Z,98.58
2018-06-10T07:37:29.003Z,96.70
2018-06-10T07:38:28.897Z,96.51
2018-06-10T07:39:28.915Z,97.09
2018-06-10T07:40:28.769Z,97.28
2018-06-10T07:41:28.723Z,95.98
2018-06-10T07:42:28.617Z,95.11
2018-06-10T07:43:28.634Z,93.76
2018-06-10T07:44:28.478Z,94.34
2018-06-10T07:45:28.443Z,95.79
2018-06-10T07:46:28.340Z,95.59
2018-06-10T07:47:28.354Z,94.00
2018-06-10T07:48:28.233Z,94.77
2018-06-10T07:49:28.159Z,92.74
2018-06-10T07:50:28.063Z,92.07
2018-06-10T07:51:28.072Z,92.46
2018-06-10T07:52:27.927Z,91.44
2018-06-10T07:53:27.881Z,92.60
2018-06-10T07:54:27.787Z,92.69
2018-06-10T07:55:27.792Z,92.50
2018-06-10T07:56:27.652Z,91.39
2018-06-10T07:57:27.602Z,92.55
2018-06-10T07:58:27.517Z,91.72
2018-06-10T07:59:27.510Z,89.59
2018-06-10T08:00:27.377Z,88.77
2018-06-10T08:01:27.419Z,87.23
2018-06-10T08:02:27.238Z,86.65
2018-06-10T08:03:27.233Z,86.40
2018-06-10T08:04:27.105Z,85.82
2018-06-10T08:05:27.152Z,84.17
2018-06-10T08:06:26.970Z,83.59
2018-06-10T08:07:26.954Z,84.60
2018-06-10T08:08:26.834Z,85.62
2018-06-10T08:09:26.770Z,84.69
2018-06-10T08:10:26.698Z,83.73
2018-06-10T08:11:26.670Z,83.92
2018-06-10T08:12:26.564Z,83.44
2018-06-10T08:13:26.582Z,84.55
2018-06-10T08:14:26.429Z,82.60
2018-06-10T08:15:26.392Z,82.32
2018-06-10T08:16:26.296Z,83.00
2018-06-10T08:17:26.304Z,82.75
2018-06-10T08:18:26.159Z,80.03
2018-06-10T08:19:26.113Z,79.64
2018-06-10T08:20:26.032Z,76.74
2018-06-10T08:21:26.021Z,77.61
2018-06-10T08:22:25.887Z,77.26
2018-06-10T08:23:25.934Z,77.06
2018-06-10T08:24:25.756Z,76.48
2018-06-10T08:25:25.742Z,76.00
2018-06-10T08:26:25.638Z,76.29
2018-06-10T08:27:25.653Z,78.61
2018-06-10T08:28:25.490Z,81.18
2018-06-10T08:29:25.464Z,80.85
2018-06-10T08:30:25.356Z,77.69
2018-06-10T08:31:25.372Z,78.03
2018-06-10T08:32:25.226Z,76.19
2018-06-10T08:33:26.120Z,76.29
2018-06-10T08:34:25.087Z,76.48
2018-06-10T08:35:25.092Z,78.81
2018-06-10T08:36:24.956Z,79.91
2018-06-10T08:37:25.060Z,76.52
2018-06-10T08:38:24.827Z,77.36
2018-06-10T08:39:24.810Z,77.16
2018-06-10T08:40:24.690Z,79.30
2018-06-10T08:41:24.724Z,77.06
2018-06-10T08:42:24.562Z,76.39
2018-06-10T08:43:24.530Z,75.28
2018-06-10T08:44:24.431Z,75.23
2018-06-10T08:45:24.446Z,75.13
2018-06-10T08:46:24.293Z,76.23
2018-06-10T08:47:24.254Z,77.78
2018-06-10T08:48:24.166Z,76.62
2018-06-10T08:49:24.162Z,75.07
2018-06-10T08:50:24.030Z,76.14
2018-06-10T08:51:24.072Z,76.14
2018-06-10T08:52:23.898Z,73.74
2018-06-10T08:53:23.888Z,74.23
2018-06-10T08:54:23.768Z,77.14
2018-06-10T08:55:23.792Z,75.88
2018-06-10T08:56:23.635Z,73.84
2018-06-10T08:57:23.600Z,73.36
2018-06-10T08:58:23.499Z,73.46
2018-06-10T08:59:23.550Z,72.29
2018-06-10T09:00:23.373Z,74.27
2018-06-10T09:01:23.424Z,72.67
2018-06-10T09:02:23.242Z,73.16
2018-06-10T09:03:23.232Z,74.33
2018-06-10T09:04:23.114Z,75.14
2018-06-10T09:05:23.141Z,76.75
2018-06-10T09:06:22.983Z,74.77
2018-06-10T09:07:22.957Z,73.32
2018-06-10T09:08:22.854Z,74.35
2018-06-10T09:09:22.864Z,76.29
2018-06-10T09:10:22.718Z,76.62
2018-06-10T09:11:22.676Z,76.14
2018-06-10T09:12:22.593Z,75.45
2018-06-10T09:13:22.583Z,72.67
2018-06-10T09:14:22.453Z,73.26
2018-06-10T09:15:22.496Z,73.30
2018-06-10T09:16:22.329Z,70.87
2018-06-10T09:17:22.307Z,70.77
2018-06-10T09:18:22.197Z,70.00
2018-06-10T09:19:22.215Z,69.70
2018-06-10T09:20:22.059Z,73.88
2018-06-10T09:21:22.028Z,71.74
2018-06-10T09:22:21.961Z,73.30
2018-06-10T09:23:21.934Z,75.43
2018-06-10T09:24:21.798Z,73.00
2018-06-10T09:25:21.847Z,70.09
2018-06-10T09:26:21.795Z,72.03
2018-06-10T09:27:21.758Z,69.60
2018-06-10T09:28:21.541Z,69.12
2018-06-10T09:29:22.597Z,70.09
2018-06-10T09:30:21.413Z,69.35
2018-06-10T09:31:21.377Z,72.45
2018-06-10T09:32:21.289Z,71.97
2018-06-10T09:33:21.289Z,71.68
2018-06-10T09:34:21.156Z,71.58
2018-06-10T09:35:23.199Z,70.42
2018-06-10T09:36:21.023Z,69.74
2018-06-10T09:37:20.963Z,68.96
2018-06-10T09:38:20.887Z,69.93
2018-06-10T09:39:20.830Z,69.12
2018-06-10T09:40:20.764Z,71.10
2018-06-10T09:41:22.710Z,71.84
2018-06-10T09:42:20.633Z,69.90
2018-06-10T09:43:20.643Z,68.77
2018-06-10T09:44:20.505Z,68.48
2018-06-10T09:45:20.552Z,69.15
2018-06-10T09:46:20.377Z,70.36
2018-06-10T09:47:20.360Z,69.77
2018-06-10T09:48:20.240Z,68.80
2018-06-10T09:49:20.268Z,68.70
2018-06-10T09:50:20.115Z,71.75
2018-06-10T09:51:20.082Z,68.93
2018-06-10T09:52:19.999Z,68.54
2018-06-10T09:53:19.991Z,68.25
2018-06-10T09:54:19.865Z,69.90
2018-06-10T09:55:19.933Z,69.45
2018-06-10T09:56:19.728Z,70.58
2018-06-10T09:57:19.722Z,68.25
2018-06-10T09:58:19.599Z,66.34
2018-06-10T09:59:19.621Z,68.93
2018-06-10T10:00:19.483Z,66.99
2018-06-10T10:01:19.420Z,68.35
2018-06-10T10:02:19.342Z,68.25
2018-06-10T10:03:19.342Z,66.99
2018-06-10T10:04:19.214Z,68.64
2018-06-10T10:05:19.252Z,67.18
2018-06-10T10:06:19.086Z,66.93
2018-06-10T10:07:19.059Z,68.19
2018-06-10T10:08:18.959Z,66.05
2018-06-10T10:09:18.970Z,66.14
2018-06-10T10:10:18.837Z,70.23
2018-06-10T10:11:18.881Z,68.38
2018-06-10T10:12:18.704Z,69.94
2018-06-10T10:13:18.689Z,67.50
2018-06-10T10:14:18.574Z,70.91
2018-06-10T10:15:18.603Z,67.60
2018-06-10T10:16:18.446Z,65.79
2018-06-10T10:17:18.410Z,64.42
2018-06-10T10:18:18.325Z,64.32
2018-06-10T10:19:18.318Z,63.06
2018-06-10T10:20:18.192Z,63.35
2018-06-10T10:21:18.233Z,65.40
2018-06-10T10:22:18.065Z,66.34
2018-06-10T10:23:18.044Z,65.56
2018-06-10T10:24:17.935Z,67.05
2018-06-10T10:25:17.880Z,66.05
2018-06-10T10:26:17.808Z,66.63
2018-06-10T10:27:17.865Z,66.53
2018-06-10T10:28:17.678Z,64.20
2018-06-10T10:29:17.669Z,65.37
2018-06-10T10:30:17.551Z,67.90
2018-06-10T10:31:17.583Z,67.21
2018-06-10T10:32:17.432Z,67.50
2018-06-10T10:33:17.389Z,66.83
2018-06-10T10:34:17.290Z,64.59
2018-06-10T10:35:17.301Z,66.69
2018-06-10T10:36:17.169Z,67.31
2018-06-10T10:37:17.211Z,66.93
2018-06-10T10:38:17.094Z,68.67
2018-06-10T10:39:17.022Z,68.87
2018-06-10T10:40:16.916Z,69.87
2018-06-10T10:41:16.972Z,69.00
2018-06-10T10:42:16.794Z,68.61
2018-06-10T10:43:16.739Z,66.89
2018-06-10T10:44:16.667Z,62.87
2018-06-10T10:45:16.657Z,61.34
2018-06-10T10:46:16.532Z,60.36
2018-06-10T10:47:16.563Z,62.02
2018-06-10T10:48:16.405Z,63.58
2018-06-10T10:49:16.373Z,66.99
2018-06-10T10:50:16.280Z,67.77
2018-06-10T10:51:16.282Z,64.07
2018-06-10T10:52:16.148Z,62.22
2018-06-10T10:53:16.195Z,61.44
2018-06-10T10:54:16.032Z,61.83
2018-06-10T10:55:16.004Z,62.22
2018-06-10T10:56:15.903Z,60.66
2018-06-10T10:57:15.911Z,60.85
2018-06-10T10:58:15.767Z,59.59
2018-06-10T10:59:15.823Z,59.59
2018-06-10T11:00:15.642Z,59.10
2018-06-10T11:01:15.637Z,60.30
2018-06-10T11:02:15.518Z,62.25
2018-06-10T11:03:15.544Z,61.76
2018-06-10T11:04:15.393Z,60.39
2018-06-10T11:05:15.353Z,61.66
2018-06-10T11:06:15.262Z,60.78
2018-06-10T11:07:15.264Z,59.42
2018-06-10T11:08:15.190Z,61.08
2018-06-10T11:09:15.180Z,60.49
2018-06-10T11:10:15.017Z,61.27
2018-06-10T11:11:14.983Z,60.78
2018-06-10T11:12:14.885Z,62.93
2018-06-10T11:13:14.896Z,61.37
2018-06-10T11:14:14.760Z,60.78
2018-06-10T11:15:14.805Z,59.30
2018-06-10T11:16:14.629Z,56.18
2018-06-10T11:17:14.617Z,55.99
2018-06-10T11:18:14.508Z,60.95
2018-06-10T11:19:14.528Z,62.05
2018-06-10T11:20:14.382Z,61.27
2018-06-10T11:21:14.333Z,59.59
2018-06-10T11:22:14.254Z,60.82
2018-06-10T11:23:14.251Z,59.95
2018-06-10T11:24:14.127Z,61.99
2018-06-10T11:25:14.153Z,62.02
2018-06-10T11:26:14.004Z,62.02
2018-06-10T11:27:13.970Z,59.98
2018-06-10T11:28:13.879Z,60.98
2018-06-10T11:29:13.878Z,60.78
2018-06-10T11:30:13.747Z,57.86
2018-06-10T11:31:13.787Z,57.99
2018-06-10T11:32:13.626Z,59.84
2018-06-10T11:33:13.597Z,57.60
2018-06-10T11:34:13.503Z,58.97
2018-06-10T11:35:13.506Z,58.97
2018-06-10T11:36:13.375Z,55.75
2018-06-10T11:37:13.421Z,55.75
2018-06-10T11:38:13.251Z,57.70
2018-06-10T11:39:13.229Z,58.38
2018-06-10T11:40:13.125Z,58.48
2018-06-10T11:41:13.139Z,58.67
2018-06-10T11:42:13.042Z,59.55
2018-06-10T11:43:13.050Z,59.45
2018-06-10T11:44:12.877Z,58.64
2018-06-10T11:45:12.857Z,60.88
2018-06-10T11:46:12.748Z,62.70
2018-06-10T11:47:12.770Z,60.36
2018-06-10T11:48:12.623Z,61.05
2018-06-10T11:49:12.580Z,63.06
2018-06-10T11:50:12.495Z,63.90
2018-06-10T11:51:12.487Z,66.34
2018-06-10T11:52:12.457Z,69.26
2018-06-10T11:53:12.319Z,71.46
2018-06-10T11:54:12.241Z,69.77
2018-06-10T11:55:12.248Z,70.71
2018-06-10T11:56:12.119Z,71.97
2018-06-10T11:57:12.133Z,70.12
2018-06-10T11:58:12.047Z,68.38
2018-06-10T11:59:12.032Z,68.38
2018-06-10T12:00:11.860Z,68.38
2018-06-10T12:01:11.839Z,65.27
2018-06-10T12:02:11.737Z,65.50
2018-06-10T12:03:11.750Z,67.24
2018-06-10T12:04:11.610Z,70.00
2018-06-10T12:05:11.710Z,70.13
2018-06-10T12:06:11.480Z,67.41
2018-06-10T12:07:11.469Z,67.83
2018-06-10T12:08:11.355Z,64.81
2018-06-10T12:09:11.380Z,63.29
2018-06-10T12:10:11.229Z,64.07
2018-06-10T12:11:11.188Z,64.36
2018-06-10T12:12:11.106Z,64.84
2018-06-10T12:13:11.099Z,61.63
2018-06-10T12:14:10.972Z,60.92
2018-06-10T12:15:11.011Z,63.55
2018-06-10T12:16:10.850Z,62.26
2018-06-10T12:17:10.818Z,60.31
2018-06-10T12:18:10.720Z,65.08
2018-06-10T12:19:10.731Z,61.96
2018-06-10T12:20:10.594Z,63.10
2018-06-10T12:21:10.540Z,63.97
2018-06-10T12:22:10.468Z,65.33
2018-06-10T12:23:10.451Z,67.18
2018-06-10T12:24:10.343Z,68.44
2018-06-10T12:25:10.363Z,67.67
2018-06-10T12:26:10.215Z,66.60
2018-06-10T12:27:10.170Z,68.44
2018-06-10T12:28:10.091Z,66.31
2018-06-10T12:29:10.082Z,63.97
2018-06-10T12:30:09.959Z,69.03
2018-06-10T12:31:09.993Z,69.03
2018-06-10T12:32:09.838Z,68.05
2018-06-10T12:33:09.805Z,67.34
2018-06-10T12:34:09.706Z,67.73
2018-06-10T12:35:09.723Z,67.34
2018-06-10T12:36:09.583Z,67.34
2018-06-10T12:37:09.628Z,66.08
2018-06-10T12:38:09.452Z,66.27
2018-06-10T12:39:09.432Z,66.17
2018-06-10T12:40:09.328Z,66.96
2018-06-10T12:41:09.348Z,64.72
2018-06-10T12:42:09.198Z,65.59
2018-06-10T12:43:09.153Z,67.83
2018-06-10T12:44:09.069Z,70.20
2018-06-10T12:45:09.065Z,69.81
2018-06-10T12:46:08.939Z,72.04
2018-06-10T12:47:08.981Z,70.29
2018-06-10T12:48:08.814Z,69.45
2018-06-10T12:49:08.826Z,69.39
2018-06-10T12:50:08.690Z,68.41
2018-06-10T12:51:08.698Z,68.12